sensor_id;sensor_type;location;lat;lon;timestamp;P1;durP1;ratioP1;P2;durP2;ratioP2
13641;SDS011;6894;52.196;9.904;2023-03-01T00:01:26;10.07;;;8.67;;
13641;SDS011;6894;52.196;9.904;2023-03-01T00:03:55;12.20;;;8.70;;
13641;SDS011;6894;52.196;9.904;2023-03-01T00:06:23;12.17;;;9.00;;
13641;SDS011;6894;52.196;9.904;2023-03-01T00:08:51;13.93;;;9.40;;
13641;SDS011;6894;52.196;9.904;2023-03-01T00:11:20;12.93;;;8.90;;
13641;SDS011;6894;52.196;9.904;2023-03-01T00:13:48;15.30;;;10.07;;
13641;SDS011;6894;52.196;9.904;2023-03-01T00:16:17;15.27;;;9.87;;
13641;SDS011;6894;52.196;9.904;2023-03-01T00:18:46;24.50;;;13.60;;
13641;SDS011;6894;52.196;9.904;2023-03-01T00:21:12;336.37;;;108.67;;
13641;SDS011;6894;52.196;9.904;2023-03-01T00:23:40;252.10;;;83.83;;
13641;SDS011;6894;52.196;9.904;2023-03-01T00:26:07;96.50;;;39.07;;
13641;SDS011;6894;52.196;9.904;2023-03-01T00:28:37;93.87;;;34.07;;
13641;SDS011;6894;52.196;9.904;2023-03-01T00:31:04;52.10;;;22.47;;
13641;SDS011;6894;52.196;9.904;2023-03-01T00:33:31;21.27;;;13.43;;
13641;SDS011;6894;52.196;9.904;2023-03-01T00:35:58;19.37;;;12.20;;
13641;SDS011;6894;52.196;9.904;2023-03-01T00:38:25;19.30;;;11.60;;
13641;SDS011;6894;52.196;9.904;2023-03-01T00:40:53;21.33;;;12.57;;
13641;SDS011;6894;52.196;9.904;2023-03-01T00:43:19;17.93;;;11.57;;
13641;SDS011;6894;52.196;9.904;2023-03-01T00:45:48;16.67;;;10.33;;
13641;SDS011;6894;52.196;9.904;2023-03-01T00:48:14;15.87;;;9.10;;
13641;SDS011;6894;52.196;9.904;2023-03-01T00:50:41;19.80;;;11.53;;
13641;SDS011;6894;52.196;9.904;2023-03-01T00:53:08;16.13;;;10.40;;
13641;SDS011;6894;52.196;9.904;2023-03-01T00:55:35;13.83;;;10.10;;
13641;SDS011;6894;52.196;9.904;2023-03-01T00:58:02;17.17;;;10.70;;
13641;SDS011;6894;52.196;9.904;2023-03-01T01:00:29;16.47;;;11.53;;
13641;SDS011;6894;52.196;9.904;2023-03-01T01:02:57;21.80;;;12.90;;
13641;SDS011;6894;52.196;9.904;2023-03-01T01:05:24;33.63;;;17.60;;
13641;SDS011;6894;52.196;9.904;2023-03-01T01:07:50;28.93;;;16.30;;
13641;SDS011;6894;52.196;9.904;2023-03-01T01:10:17;25.77;;;15.77;;
13641;SDS011;6894;52.196;9.904;2023-03-01T01:12:44;21.70;;;13.13;;
13641;SDS011;6894;52.196;9.904;2023-03-01T01:15:12;18.77;;;12.83;;
13641;SDS011;6894;52.196;9.904;2023-03-01T01:17:41;26.43;;;14.23;;
13641;SDS011;6894;52.196;9.904;2023-03-01T01:20:10;23.50;;;13.27;;
13641;SDS011;6894;52.196;9.904;2023-03-01T01:22:37;17.77;;;11.43;;
13641;SDS011;6894;52.196;9.904;2023-03-01T01:25:04;14.87;;;10.97;;
13641;SDS011;6894;52.196;9.904;2023-03-01T01:27:31;11.47;;;8.17;;
13641;SDS011;6894;52.196;9.904;2023-03-01T01:29:58;13.07;;;8.60;;
13641;SDS011;6894;52.196;9.904;2023-03-01T01:32:25;11.03;;;7.80;;
13641;SDS011;6894;52.196;9.904;2023-03-01T01:34:52;11.57;;;8.07;;
13641;SDS011;6894;52.196;9.904;2023-03-01T01:37:20;12.47;;;9.40;;
13641;SDS011;6894;52.196;9.904;2023-03-01T01:39:47;15.43;;;10.07;;
13641;SDS011;6894;52.196;9.904;2023-03-01T01:42:14;12.47;;;8.10;;
13641;SDS011;6894;52.196;9.904;2023-03-01T01:44:42;12.50;;;8.00;;
13641;SDS011;6894;52.196;9.904;2023-03-01T01:47:12;12.30;;;9.00;;
13641;SDS011;6894;52.196;9.904;2023-03-01T01:49:43;9.70;;;8.00;;
13641;SDS011;6894;52.196;9.904;2023-03-01T01:52:13;10.10;;;8.43;;
13641;SDS011;6894;52.196;9.904;2023-03-01T01:54:47;11.97;;;8.70;;
13641;SDS011;6894;52.196;9.904;2023-03-01T01:57:18;12.73;;;8.17;;
13641;SDS011;6894;52.196;9.904;2023-03-01T01:59:48;11.00;;;8.17;;
13641;SDS011;6894;52.196;9.904;2023-03-01T02:02:18;11.07;;;8.20;;
13641;SDS011;6894;52.196;9.904;2023-03-01T02:04:46;10.43;;;7.53;;
13641;SDS011;6894;52.196;9.904;2023-03-01T02:07:15;8.00;;;7.17;;
13641;SDS011;6894;52.196;9.904;2023-03-01T02:09:44;12.47;;;7.57;;
13641;SDS011;6894;52.196;9.904;2023-03-01T02:12:14;12.77;;;8.47;;
13641;SDS011;6894;52.196;9.904;2023-03-01T02:14:43;13.17;;;8.27;;
13641;SDS011;6894;52.196;9.904;2023-03-01T02:17:10;13.03;;;9.67;;
13641;SDS011;6894;52.196;9.904;2023-03-01T02:19:41;11.63;;;8.40;;
13641;SDS011;6894;52.196;9.904;2023-03-01T02:22:18;10.60;;;8.77;;
13641;SDS011;6894;52.196;9.904;2023-03-01T02:24:53;10.77;;;7.77;;
13641;SDS011;6894;52.196;9.904;2023-03-01T02:27:33;11.03;;;7.70;;
13641;SDS011;6894;52.196;9.904;2023-03-01T02:30:06;11.67;;;8.33;;
13641;SDS011;6894;52.196;9.904;2023-03-01T02:32:37;12.97;;;7.70;;
13641;SDS011;6894;52.196;9.904;2023-03-01T02:35:06;11.23;;;7.67;;
13641;SDS011;6894;52.196;9.904;2023-03-01T02:37:35;11.17;;;7.53;;
13641;SDS011;6894;52.196;9.904;2023-03-01T02:40:03;10.10;;;7.40;;
13641;SDS011;6894;52.196;9.904;2023-03-01T02:42:36;9.90;;;7.70;;
13641;SDS011;6894;52.196;9.904;2023-03-01T02:45:13;11.63;;;7.77;;
13641;SDS011;6894;52.196;9.904;2023-03-01T02:47:39;12.20;;;6.97;;
13641;SDS011;6894;52.196;9.904;2023-03-01T02:50:11;9.87;;;7.33;;
13641;SDS011;6894;52.196;9.904;2023-03-01T02:52:49;12.00;;;7.53;;
13641;SDS011;6894;52.196;9.904;2023-03-01T02:55:23;8.50;;;7.03;;
13641;SDS011;6894;52.196;9.904;2023-03-01T02:57:50;13.97;;;7.70;;
13641;SDS011;6894;52.196;9.904;2023-03-01T03:00:19;13.93;;;7.73;;
13641;SDS011;6894;52.196;9.904;2023-03-01T03:02:51;11.13;;;7.50;;
13641;SDS011;6894;52.196;9.904;2023-03-01T03:05:20;13.77;;;8.20;;
13641;SDS011;6894;52.196;9.904;2023-03-01T03:07:49;13.40;;;8.43;;
13641;SDS011;6894;52.196;9.904;2023-03-01T03:10:19;14.10;;;7.83;;
13641;SDS011;6894;52.196;9.904;2023-03-01T03:12:48;12.30;;;8.40;;
13641;SDS011;6894;52.196;9.904;2023-03-01T03:15:16;16.10;;;8.43;;
13641;SDS011;6894;52.196;9.904;2023-03-01T03:17:45;10.63;;;7.57;;
13641;SDS011;6894;52.196;9.904;2023-03-01T03:20:13;12.73;;;8.13;;
13641;SDS011;6894;52.196;9.904;2023-03-01T03:22:43;13.40;;;7.90;;
13641;SDS011;6894;52.196;9.904;2023-03-01T03:25:11;8.90;;;7.70;;
13641;SDS011;6894;52.196;9.904;2023-03-01T03:27:38;10.27;;;8.23;;
13641;SDS011;6894;52.196;9.904;2023-03-01T03:30:06;10.90;;;8.13;;
13641;SDS011;6894;52.196;9.904;2023-03-01T03:32:38;13.00;;;8.27;;
13641;SDS011;6894;52.196;9.904;2023-03-01T03:35:06;10.50;;;8.20;;
13641;SDS011;6894;52.196;9.904;2023-03-01T03:37:35;13.50;;;8.67;;
13641;SDS011;6894;52.196;9.904;2023-03-01T03:40:19;12.63;;;7.93;;
13641;SDS011;6894;52.196;9.904;2023-03-01T03:42:46;12.57;;;8.97;;
13641;SDS011;6894;52.196;9.904;2023-03-01T03:45:13;13.77;;;9.37;;
13641;SDS011;6894;52.196;9.904;2023-03-01T03:47:42;10.63;;;9.03;;
13641;SDS011;6894;52.196;9.904;2023-03-01T03:50:10;12.43;;;8.73;;
13641;SDS011;6894;52.196;9.904;2023-03-01T03:52:38;12.90;;;8.30;;
13641;SDS011;6894;52.196;9.904;2023-03-01T03:55:05;11.43;;;8.20;;
13641;SDS011;6894;52.196;9.904;2023-03-01T03:57:35;11.47;;;7.97;;
13641;SDS011;6894;52.196;9.904;2023-03-01T04:00:03;13.43;;;9.07;;
13641;SDS011;6894;52.196;9.904;2023-03-01T04:02:30;15.83;;;9.77;;
13641;SDS011;6894;52.196;9.904;2023-03-01T04:04:59;12.50;;;10.00;;
13641;SDS011;6894;52.196;9.904;2023-03-01T04:07:25;13.47;;;9.87;;
13641;SDS011;6894;52.196;9.904;2023-03-01T04:09:52;15.30;;;9.47;;
13641;SDS011;6894;52.196;9.904;2023-03-01T04:12:19;12.20;;;9.10;;
13641;SDS011;6894;52.196;9.904;2023-03-01T04:14:48;11.27;;;8.87;;
13641;SDS011;6894;52.196;9.904;2023-03-01T04:17:15;15.50;;;9.63;;
13641;SDS011;6894;52.196;9.904;2023-03-01T04:19:41;12.60;;;9.40;;
13641;SDS011;6894;52.196;9.904;2023-03-01T04:22:10;13.60;;;10.27;;
13641;SDS011;6894;52.196;9.904;2023-03-01T04:24:42;17.67;;;9.03;;
13641;SDS011;6894;52.196;9.904;2023-03-01T04:27:09;12.73;;;8.27;;
13641;SDS011;6894;52.196;9.904;2023-03-01T04:29:36;13.70;;;9.00;;
13641;SDS011;6894;52.196;9.904;2023-03-01T04:32:03;12.27;;;8.83;;
13641;SDS011;6894;52.196;9.904;2023-03-01T04:34:30;17.73;;;9.63;;
13641;SDS011;6894;52.196;9.904;2023-03-01T04:36:56;14.50;;;8.53;;
13641;SDS011;6894;52.196;9.904;2023-03-01T04:39:24;12.13;;;9.60;;
13641;SDS011;6894;52.196;9.904;2023-03-01T04:41:51;12.90;;;9.50;;
13641;SDS011;6894;52.196;9.904;2023-03-01T04:44:18;14.80;;;9.67;;
13641;SDS011;6894;52.196;9.904;2023-03-01T04:46:45;13.23;;;9.43;;
13641;SDS011;6894;52.196;9.904;2023-03-01T04:49:14;14.80;;;9.53;;
13641;SDS011;6894;52.196;9.904;2023-03-01T04:51:41;12.87;;;8.63;;
13641;SDS011;6894;52.196;9.904;2023-03-01T04:54:08;13.80;;;9.20;;
13641;SDS011;6894;52.196;9.904;2023-03-01T04:56:36;11.40;;;8.73;;
13641;SDS011;6894;52.196;9.904;2023-03-01T04:59:03;12.77;;;8.97;;
13641;SDS011;6894;52.196;9.904;2023-03-01T05:01:30;15.17;;;9.33;;
13641;SDS011;6894;52.196;9.904;2023-03-01T05:03:57;14.67;;;8.40;;
13641;SDS011;6894;52.196;9.904;2023-03-01T05:06:27;13.00;;;9.30;;
13641;SDS011;6894;52.196;9.904;2023-03-01T05:08:54;11.17;;;8.47;;
13641;SDS011;6894;52.196;9.904;2023-03-01T05:11:21;10.30;;;8.47;;
13641;SDS011;6894;52.196;9.904;2023-03-01T05:13:49;11.90;;;8.00;;
13641;SDS011;6894;52.196;9.904;2023-03-01T05:16:19;11.40;;;8.53;;
13641;SDS011;6894;52.196;9.904;2023-03-01T05:18:46;13.53;;;9.03;;
13641;SDS011;6894;52.196;9.904;2023-03-01T05:21:15;13.27;;;9.60;;
13641;SDS011;6894;52.196;9.904;2023-03-01T05:23:42;9.17;;;7.60;;
13641;SDS011;6894;52.196;9.904;2023-03-01T05:26:09;10.57;;;7.70;;
13641;SDS011;6894;52.196;9.904;2023-03-01T05:28:37;11.20;;;8.60;;
13641;SDS011;6894;52.196;9.904;2023-03-01T05:31:06;13.40;;;8.53;;
13641;SDS011;6894;52.196;9.904;2023-03-01T05:33:35;12.13;;;8.97;;
13641;SDS011;6894;52.196;9.904;2023-03-01T05:36:02;20.80;;;10.00;;
13641;SDS011;6894;52.196;9.904;2023-03-01T05:38:29;12.00;;;9.57;;
13641;SDS011;6894;52.196;9.904;2023-03-01T05:40:56;13.40;;;9.10;;
13641;SDS011;6894;52.196;9.904;2023-03-01T05:43:23;13.93;;;9.50;;
13641;SDS011;6894;52.196;9.904;2023-03-01T05:45:50;14.27;;;9.20;;
13641;SDS011;6894;52.196;9.904;2023-03-01T05:48:18;12.53;;;8.50;;
13641;SDS011;6894;52.196;9.904;2023-03-01T05:50:45;12.93;;;9.17;;
13641;SDS011;6894;52.196;9.904;2023-03-01T05:53:13;15.13;;;8.77;;
13641;SDS011;6894;52.196;9.904;2023-03-01T05:55:41;14.13;;;8.37;;
13641;SDS011;6894;52.196;9.904;2023-03-01T05:58:10;10.50;;;8.97;;
13641;SDS011;6894;52.196;9.904;2023-03-01T06:00:39;11.50;;;8.67;;
13641;SDS011;6894;52.196;9.904;2023-03-01T06:03:06;11.20;;;8.47;;
13641;SDS011;6894;52.196;9.904;2023-03-01T06:05:36;11.63;;;9.33;;
13641;SDS011;6894;52.196;9.904;2023-03-01T06:08:03;13.03;;;9.17;;
13641;SDS011;6894;52.196;9.904;2023-03-01T06:10:31;12.63;;;8.80;;
13641;SDS011;6894;52.196;9.904;2023-03-01T06:12:59;12.60;;;10.03;;
13641;SDS011;6894;52.196;9.904;2023-03-01T06:15:26;12.90;;;9.23;;
13641;SDS011;6894;52.196;9.904;2023-03-01T06:17:53;11.40;;;8.43;;
13641;SDS011;6894;52.196;9.904;2023-03-01T06:20:22;12.47;;;8.93;;
13641;SDS011;6894;52.196;9.904;2023-03-01T06:22:52;15.90;;;9.13;;
13641;SDS011;6894;52.196;9.904;2023-03-01T06:25:20;13.33;;;9.70;;
13641;SDS011;6894;52.196;9.904;2023-03-01T06:27:48;12.80;;;9.43;;
13641;SDS011;6894;52.196;9.904;2023-03-01T06:30:15;15.10;;;10.20;;
13641;SDS011;6894;52.196;9.904;2023-03-01T06:32:44;16.00;;;10.43;;
13641;SDS011;6894;52.196;9.904;2023-03-01T06:35:12;11.50;;;8.67;;
13641;SDS011;6894;52.196;9.904;2023-03-01T06:37:42;14.07;;;9.00;;
13641;SDS011;6894;52.196;9.904;2023-03-01T06:40:12;12.17;;;8.73;;
13641;SDS011;6894;52.196;9.904;2023-03-01T06:42:40;14.30;;;9.83;;
13641;SDS011;6894;52.196;9.904;2023-03-01T06:45:08;13.50;;;8.87;;
13641;SDS011;6894;52.196;9.904;2023-03-01T06:47:35;13.33;;;9.13;;
13641;SDS011;6894;52.196;9.904;2023-03-01T06:50:02;11.73;;;8.90;;
13641;SDS011;6894;52.196;9.904;2023-03-01T06:52:30;11.10;;;8.17;;
13641;SDS011;6894;52.196;9.904;2023-03-01T06:54:56;11.97;;;8.90;;
13641;SDS011;6894;52.196;9.904;2023-03-01T06:57:24;15.23;;;9.53;;
13641;SDS011;6894;52.196;9.904;2023-03-01T06:59:51;12.60;;;9.20;;
13641;SDS011;6894;52.196;9.904;2023-03-01T07:02:18;12.23;;;10.00;;
13641;SDS011;6894;52.196;9.904;2023-03-01T07:04:45;11.97;;;9.33;;
13641;SDS011;6894;52.196;9.904;2023-03-01T07:07:12;13.23;;;9.20;;
13641;SDS011;6894;52.196;9.904;2023-03-01T07:09:38;18.40;;;9.33;;
13641;SDS011;6894;52.196;9.904;2023-03-01T07:12:05;12.13;;;9.30;;
13641;SDS011;6894;52.196;9.904;2023-03-01T07:14:34;13.50;;;9.77;;
13641;SDS011;6894;52.196;9.904;2023-03-01T07:17:01;12.90;;;9.47;;
13641;SDS011;6894;52.196;9.904;2023-03-01T07:19:27;14.17;;;9.97;;
13641;SDS011;6894;52.196;9.904;2023-03-01T07:21:54;14.80;;;10.00;;
13641;SDS011;6894;52.196;9.904;2023-03-01T07:24:21;11.33;;;9.27;;
13641;SDS011;6894;52.196;9.904;2023-03-01T07:26:48;16.23;;;9.93;;
13641;SDS011;6894;52.196;9.904;2023-03-01T07:29:15;16.33;;;11.10;;
13641;SDS011;6894;52.196;9.904;2023-03-01T07:31:44;16.27;;;11.50;;
13641;SDS011;6894;52.196;9.904;2023-03-01T07:34:11;16.40;;;11.70;;
13641;SDS011;6894;52.196;9.904;2023-03-01T07:36:37;14.37;;;10.90;;
13641;SDS011;6894;52.196;9.904;2023-03-01T07:39:08;16.50;;;12.17;;
13641;SDS011;6894;52.196;9.904;2023-03-01T07:41:35;13.57;;;12.00;;
13641;SDS011;6894;52.196;9.904;2023-03-01T07:44:02;15.87;;;13.10;;
13641;SDS011;6894;52.196;9.904;2023-03-01T07:46:29;16.53;;;12.20;;
13641;SDS011;6894;52.196;9.904;2023-03-01T07:48:57;19.37;;;11.23;;
13641;SDS011;6894;52.196;9.904;2023-03-01T07:51:24;15.00;;;11.87;;
13641;SDS011;6894;52.196;9.904;2023-03-01T07:53:50;13.83;;;11.20;;
13641;SDS011;6894;52.196;9.904;2023-03-01T07:56:17;17.83;;;11.40;;
13641;SDS011;6894;52.196;9.904;2023-03-01T07:58:44;14.70;;;11.63;;
13641;SDS011;6894;52.196;9.904;2023-03-01T08:01:12;13.37;;;10.63;;
13641;SDS011;6894;52.196;9.904;2023-03-01T08:03:40;15.17;;;11.43;;
13641;SDS011;6894;52.196;9.904;2023-03-01T08:06:10;13.20;;;10.03;;
13641;SDS011;6894;52.196;9.904;2023-03-01T08:08:39;15.77;;;10.40;;
13641;SDS011;6894;52.196;9.904;2023-03-01T08:11:06;13.10;;;10.57;;
13641;SDS011;6894;52.196;9.904;2023-03-01T08:13:36;13.23;;;11.03;;
13641;SDS011;6894;52.196;9.904;2023-03-01T08:16:03;9.80;;;8.50;;
13641;SDS011;6894;52.196;9.904;2023-03-01T08:18:31;14.97;;;11.63;;
13641;SDS011;6894;52.196;9.904;2023-03-01T08:21:03;9.63;;;8.63;;
13641;SDS011;6894;52.196;9.904;2023-03-01T08:23:49;11.70;;;9.97;;
13641;SDS011;6894;52.196;9.904;2023-03-01T08:26:16;9.40;;;8.50;;
13641;SDS011;6894;52.196;9.904;2023-03-01T08:28:44;15.20;;;9.70;;
13641;SDS011;6894;52.196;9.904;2023-03-01T08:31:15;11.23;;;9.40;;
13641;SDS011;6894;52.196;9.904;2023-03-01T08:33:43;15.80;;;11.17;;
13641;SDS011;6894;52.196;9.904;2023-03-01T08:36:15;10.50;;;8.70;;
13641;SDS011;6894;52.196;9.904;2023-03-01T08:38:43;11.70;;;10.07;;
13641;SDS011;6894;52.196;9.904;2023-03-01T08:41:12;13.50;;;9.20;;
13641;SDS011;6894;52.196;9.904;2023-03-01T08:43:39;13.00;;;10.90;;
13641;SDS011;6894;52.196;9.904;2023-03-01T08:46:06;11.23;;;10.03;;
13641;SDS011;6894;52.196;9.904;2023-03-01T08:48:32;14.30;;;10.80;;
13641;SDS011;6894;52.196;9.904;2023-03-01T08:51:06;10.53;;;9.07;;
13641;SDS011;6894;52.196;9.904;2023-03-01T08:53:33;13.67;;;10.70;;
13641;SDS011;6894;52.196;9.904;2023-03-01T08:56:00;13.73;;;9.90;;
13641;SDS011;6894;52.196;9.904;2023-03-01T08:58:28;14.57;;;11.30;;
13641;SDS011;6894;52.196;9.904;2023-03-01T09:00:57;12.03;;;10.03;;
13641;SDS011;6894;52.196;9.904;2023-03-01T09:03:24;14.33;;;11.43;;
13641;SDS011;6894;52.196;9.904;2023-03-01T09:05:51;12.13;;;10.00;;
13641;SDS011;6894;52.196;9.904;2023-03-01T09:08:19;13.60;;;11.27;;
13641;SDS011;6894;52.196;9.904;2023-03-01T09:10:46;15.33;;;10.13;;
13641;SDS011;6894;52.196;9.904;2023-03-01T09:13:13;12.83;;;11.10;;
13641;SDS011;6894;52.196;9.904;2023-03-01T09:15:41;11.50;;;10.27;;
13641;SDS011;6894;52.196;9.904;2023-03-01T09:18:08;11.27;;;9.03;;
13641;SDS011;6894;52.196;9.904;2023-03-01T09:20:35;10.47;;;9.27;;
13641;SDS011;6894;52.196;9.904;2023-03-01T09:23:02;11.13;;;9.97;;
13641;SDS011;6894;52.196;9.904;2023-03-01T09:25:28;13.37;;;11.17;;
13641;SDS011;6894;52.196;9.904;2023-03-01T09:27:55;15.17;;;10.87;;
13641;SDS011;6894;52.196;9.904;2023-03-01T09:30:22;10.13;;;8.73;;
13641;SDS011;6894;52.196;9.904;2023-03-01T09:32:50;11.27;;;9.53;;
13641;SDS011;6894;52.196;9.904;2023-03-01T09:35:17;10.00;;;9.00;;
13641;SDS011;6894;52.196;9.904;2023-03-01T09:37:44;14.03;;;9.80;;
13641;SDS011;6894;52.196;9.904;2023-03-01T09:40:12;12.90;;;8.67;;
13641;SDS011;6894;52.196;9.904;2023-03-01T09:42:45;11.23;;;9.37;;
13641;SDS011;6894;52.196;9.904;2023-03-01T09:45:21;9.20;;;7.83;;
13641;SDS011;6894;52.196;9.904;2023-03-01T09:47:54;14.63;;;8.77;;
13641;SDS011;6894;52.196;9.904;2023-03-01T09:50:22;10.70;;;7.27;;
13641;SDS011;6894;52.196;9.904;2023-03-01T09:52:52;10.83;;;8.13;;
13641;SDS011;6894;52.196;9.904;2023-03-01T09:55:26;9.17;;;8.20;;
13641;SDS011;6894;52.196;9.904;2023-03-01T09:57:59;11.10;;;9.03;;
13641;SDS011;6894;52.196;9.904;2023-03-01T10:00:35;11.90;;;9.43;;
13641;SDS011;6894;52.196;9.904;2023-03-01T10:03:10;10.70;;;8.73;;
13641;SDS011;6894;52.196;9.904;2023-03-01T10:05:45;10.90;;;8.07;;
13641;SDS011;6894;52.196;9.904;2023-03-01T10:08:31;10.50;;;9.23;;
13641;SDS011;6894;52.196;9.904;2023-03-01T10:11:04;9.93;;;7.43;;
13641;SDS011;6894;52.196;9.904;2023-03-01T10:13:45;11.73;;;7.77;;
13641;SDS011;6894;52.196;9.904;2023-03-01T10:16:15;8.67;;;7.77;;
13641;SDS011;6894;52.196;9.904;2023-03-01T10:18:47;12.00;;;8.17;;
13641;SDS011;6894;52.196;9.904;2023-03-01T10:21:21;8.10;;;6.93;;
13641;SDS011;6894;52.196;9.904;2023-03-01T10:23:49;11.40;;;7.87;;
13641;SDS011;6894;52.196;9.904;2023-03-01T10:26:22;7.53;;;6.03;;
13641;SDS011;6894;52.196;9.904;2023-03-01T10:29:11;9.97;;;7.20;;
13641;SDS011;6894;52.196;9.904;2023-03-01T10:31:40;6.90;;;6.20;;
13641;SDS011;6894;52.196;9.904;2023-03-01T10:34:14;7.73;;;6.03;;
13641;SDS011;6894;52.196;9.904;2023-03-01T10:36:43;6.73;;;5.77;;
13641;SDS011;6894;52.196;9.904;2023-03-01T10:39:12;8.30;;;5.80;;
13641;SDS011;6894;52.196;9.904;2023-03-01T10:41:57;8.70;;;6.37;;
13641;SDS011;6894;52.196;9.904;2023-03-01T10:44:36;8.70;;;6.40;;
13641;SDS011;6894;52.196;9.904;2023-03-01T10:47:13;6.33;;;5.20;;
13641;SDS011;6894;52.196;9.904;2023-03-01T10:49:52;6.87;;;5.97;;
13641;SDS011;6894;52.196;9.904;2023-03-01T10:52:21;6.73;;;5.70;;
13641;SDS011;6894;52.196;9.904;2023-03-01T10:54:51;7.57;;;5.90;;
13641;SDS011;6894;52.196;9.904;2023-03-01T10:57:33;6.23;;;5.30;;
13641;SDS011;6894;52.196;9.904;2023-03-01T11:00:16;8.57;;;5.97;;
13641;SDS011;6894;52.196;9.904;2023-03-01T11:02:47;6.13;;;5.53;;
13641;SDS011;6894;52.196;9.904;2023-03-01T11:05:21;5.90;;;5.20;;
13641;SDS011;6894;52.196;9.904;2023-03-01T11:07:50;6.27;;;5.20;;
13641;SDS011;6894;52.196;9.904;2023-03-01T11:10:23;6.30;;;5.53;;
13641;SDS011;6894;52.196;9.904;2023-03-01T11:12:51;6.63;;;5.17;;
13641;SDS011;6894;52.196;9.904;2023-03-01T11:15:25;7.60;;;5.73;;
13641;SDS011;6894;52.196;9.904;2023-03-01T11:17:53;19.67;;;11.50;;
13641;SDS011;6894;52.196;9.904;2023-03-01T11:20:27;9.07;;;5.37;;
13641;SDS011;6894;52.196;9.904;2023-03-01T11:22:58;6.50;;;5.87;;
13641;SDS011;6894;52.196;9.904;2023-03-01T11:25:30;4.73;;;4.23;;
13641;SDS011;6894;52.196;9.904;2023-03-01T11:28:01;6.07;;;4.80;;
13641;SDS011;6894;52.196;9.904;2023-03-01T11:30:31;6.63;;;4.70;;
13641;SDS011;6894;52.196;9.904;2023-03-01T11:33:03;7.77;;;6.93;;
13641;SDS011;6894;52.196;9.904;2023-03-01T11:35:42;5.00;;;4.50;;
13641;SDS011;6894;52.196;9.904;2023-03-01T11:38:15;7.37;;;5.03;;
13641;SDS011;6894;52.196;9.904;2023-03-01T11:40:47;6.07;;;5.47;;
13641;SDS011;6894;52.196;9.904;2023-03-01T11:43:20;6.60;;;4.70;;
13641;SDS011;6894;52.196;9.904;2023-03-01T11:48:52;4.67;;;4.27;;
13641;SDS011;6894;52.196;9.904;2023-03-01T11:51:34;7.57;;;5.23;;
13641;SDS011;6894;52.196;9.904;2023-03-01T11:54:11;6.47;;;5.03;;
13641;SDS011;6894;52.196;9.904;2023-03-01T11:56:45;7.73;;;5.03;;
13641;SDS011;6894;52.196;9.904;2023-03-01T12:05:20;6.27;;;4.63;;
13641;SDS011;6894;52.196;9.904;2023-03-01T12:08:03;4.90;;;4.23;;
13641;SDS011;6894;52.196;9.904;2023-03-01T12:10:37;5.40;;;3.73;;
13641;SDS011;6894;52.196;9.904;2023-03-01T12:13:17;5.10;;;4.60;;
13641;SDS011;6894;52.196;9.904;2023-03-01T12:15:59;5.27;;;4.70;;
13641;SDS011;6894;52.196;9.904;2023-03-01T12:18:56;4.93;;;4.33;;
13641;SDS011;6894;52.196;9.904;2023-03-01T12:21:41;5.03;;;4.43;;
13641;SDS011;6894;52.196;9.904;2023-03-01T12:24:33;6.87;;;4.87;;
13641;SDS011;6894;52.196;9.904;2023-03-01T12:30:16;5.00;;;4.37;;
13641;SDS011;6894;52.196;9.904;2023-03-01T12:32:54;9.23;;;4.60;;
13641;SDS011;6894;52.196;9.904;2023-03-01T12:35:42;6.47;;;4.13;;
13641;SDS011;6894;52.196;9.904;2023-03-01T12:38:36;6.17;;;4.43;;
13641;SDS011;6894;52.196;9.904;2023-03-01T12:41:11;5.10;;;4.27;;
13641;SDS011;6894;52.196;9.904;2023-03-01T12:43:55;6.93;;;4.43;;
13641;SDS011;6894;52.196;9.904;2023-03-01T12:46:37;5.10;;;4.60;;
13641;SDS011;6894;52.196;9.904;2023-03-01T12:49:18;4.83;;;4.03;;
13641;SDS011;6894;52.196;9.904;2023-03-01T12:51:50;5.00;;;4.10;;
13641;SDS011;6894;52.196;9.904;2023-03-01T12:54:27;5.10;;;4.40;;
13641;SDS011;6894;52.196;9.904;2023-03-01T12:56:57;5.27;;;4.17;;
13641;SDS011;6894;52.196;9.904;2023-03-01T12:59:31;5.23;;;4.07;;
13641;SDS011;6894;52.196;9.904;2023-03-01T13:02:04;7.60;;;4.87;;
13641;SDS011;6894;52.196;9.904;2023-03-01T13:04:44;5.77;;;5.17;;
13641;SDS011;6894;52.196;9.904;2023-03-01T13:07:29;17.87;;;11.47;;
13641;SDS011;6894;52.196;9.904;2023-03-01T13:10:05;8.37;;;6.97;;
13641;SDS011;6894;52.196;9.904;2023-03-01T13:12:51;5.93;;;4.07;;
13641;SDS011;6894;52.196;9.904;2023-03-01T13:15:27;63.67;;;24.33;;
13641;SDS011;6894;52.196;9.904;2023-03-01T13:17:56;6.57;;;5.00;;
13641;SDS011;6894;52.196;9.904;2023-03-01T13:20:25;4.53;;;3.37;;
13641;SDS011;6894;52.196;9.904;2023-03-01T13:23:04;5.20;;;3.77;;
13641;SDS011;6894;52.196;9.904;2023-03-01T13:25:46;5.53;;;3.43;;
13641;SDS011;6894;52.196;9.904;2023-03-01T13:34:39;3.80;;;3.10;;
13641;SDS011;6894;52.196;9.904;2023-03-01T13:37:08;4.53;;;3.67;;
13641;SDS011;6894;52.196;9.904;2023-03-01T13:39:38;4.93;;;3.97;;
13641;SDS011;6894;52.196;9.904;2023-03-01T13:44:58;5.73;;;3.70;;
13641;SDS011;6894;52.196;9.904;2023-03-01T13:47:26;3.80;;;3.10;;
13641;SDS011;6894;52.196;9.904;2023-03-01T13:49:55;3.97;;;3.57;;
13641;SDS011;6894;52.196;9.904;2023-03-01T13:52:32;6.07;;;3.27;;
13641;SDS011;6894;52.196;9.904;2023-03-01T13:55:06;5.13;;;3.23;;
13641;SDS011;6894;52.196;9.904;2023-03-01T13:57:44;5.33;;;3.87;;
13641;SDS011;6894;52.196;9.904;2023-03-01T14:00:26;4.87;;;3.20;;
13641;SDS011;6894;52.196;9.904;2023-03-01T14:03:08;4.77;;;2.93;;
13641;SDS011;6894;52.196;9.904;2023-03-01T14:05:37;3.80;;;3.40;;
13641;SDS011;6894;52.196;9.904;2023-03-01T14:08:05;4.63;;;3.47;;
13641;SDS011;6894;52.196;9.904;2023-03-01T14:10:49;3.53;;;2.93;;
13641;SDS011;6894;52.196;9.904;2023-03-01T14:13:27;5.77;;;3.40;;
13641;SDS011;6894;52.196;9.904;2023-03-01T14:16:14;3.77;;;3.13;;
13641;SDS011;6894;52.196;9.904;2023-03-01T14:18:51;5.30;;;3.80;;
13641;SDS011;6894;52.196;9.904;2023-03-01T14:21:29;4.27;;;3.10;;
13641;SDS011;6894;52.196;9.904;2023-03-01T14:23:56;4.33;;;3.57;;
13641;SDS011;6894;52.196;9.904;2023-03-01T14:26:24;4.67;;;3.57;;
13641;SDS011;6894;52.196;9.904;2023-03-01T14:28:51;4.97;;;3.67;;
13641;SDS011;6894;52.196;9.904;2023-03-01T14:31:31;4.43;;;3.57;;
13641;SDS011;6894;52.196;9.904;2023-03-01T14:34:01;4.63;;;3.70;;
13641;SDS011;6894;52.196;9.904;2023-03-01T14:36:29;6.13;;;4.57;;
13641;SDS011;6894;52.196;9.904;2023-03-01T14:38:57;4.90;;;3.80;;
13641;SDS011;6894;52.196;9.904;2023-03-01T14:41:29;4.10;;;3.43;;
13641;SDS011;6894;52.196;9.904;2023-03-01T14:44:00;3.90;;;3.20;;
13641;SDS011;6894;52.196;9.904;2023-03-01T14:46:33;4.47;;;3.60;;
13641;SDS011;6894;52.196;9.904;2023-03-01T14:49:03;4.53;;;3.20;;
13641;SDS011;6894;52.196;9.904;2023-03-01T14:51:35;4.07;;;2.93;;
13641;SDS011;6894;52.196;9.904;2023-03-01T14:54:04;5.03;;;4.53;;
13641;SDS011;6894;52.196;9.904;2023-03-01T14:56:45;4.37;;;3.17;;
13641;SDS011;6894;52.196;9.904;2023-03-01T14:59:13;4.30;;;3.03;;
13641;SDS011;6894;52.196;9.904;2023-03-01T15:01:41;4.57;;;3.20;;
13641;SDS011;6894;52.196;9.904;2023-03-01T15:04:10;3.33;;;3.03;;
13641;SDS011;6894;52.196;9.904;2023-03-01T15:06:39;3.80;;;2.97;;
13641;SDS011;6894;52.196;9.904;2023-03-01T15:09:07;4.13;;;3.27;;
13641;SDS011;6894;52.196;9.904;2023-03-01T15:11:40;4.20;;;3.03;;
13641;SDS011;6894;52.196;9.904;2023-03-01T15:16:55;5.30;;;3.27;;
13641;SDS011;6894;52.196;9.904;2023-03-01T15:19:23;4.57;;;3.60;;
13641;SDS011;6894;52.196;9.904;2023-03-01T15:21:54;3.80;;;3.40;;
13641;SDS011;6894;52.196;9.904;2023-03-01T15:24:23;5.20;;;3.07;;
13641;SDS011;6894;52.196;9.904;2023-03-01T15:26:53;4.60;;;3.30;;
13641;SDS011;6894;52.196;9.904;2023-03-01T15:29:23;4.80;;;3.03;;
13641;SDS011;6894;52.196;9.904;2023-03-01T15:31:56;4.17;;;2.93;;
13641;SDS011;6894;52.196;9.904;2023-03-01T15:34:25;4.20;;;3.23;;